Pagrindinis puslapis
METAR-TAF:

METAR-TAF

Oro uostai :

Fukuokas, Vietnamas

platuma: 10-10-18N, ilguma: 103-59-28E, Aukštis: 11 m

Dabartinis oras

Ataskaita buvo paskelbta 38 minutes, ne 04:00 UTC
Ramus vėjas
Temperatūra 27°C
Drėgmė 89%
Slėgis 1012 hPa
Matomumas 10 km arba daugiau
Mažai debesys ne aukštis 1500 ft

METAR: VVPQ 310400Z 00000KT 9999 FEW015 27/25 Q1012 NOSIG

Laikas: 11:38 (04:38 UTC)

Prognozė

Ataskaita buvo paskelbta 5 valandos ir 38 minutes, ne 23:00 UTC
Prognozė galioja nuo 31 metu 00 UTC su 31 metu 24 UTC
Vėjas 3 kt nuo kintamojo kryptimis
Matomumas 10 km arba daugiau
Išsisklaidę debesys ne aukštis 1500 ft
Tapsmas
nuo 31 metu 05 UTC su 31 metu 06 UTC
Vėjas 10 kt iš Pietvakarių
Laikinai
nuo 31 metu 06 UTC su 31 metu 10 UTC
Matomumas: 5000 m
Su prošvaistėmis ne aukštis 1500 ft
Mažai debesys ne aukštis 1700 ft, Liūtiniai kamuoliniai debesys.
perkūnija, lietus

TAF: VVPQ 302300Z 3100/3124 VRB03KT 9999 SCT015 BECMG 3105/3106 23010KT TEMPO 3106/3110 5000 TSRA BKN015 FEW017CB

Orai ataskaitas ir orų prognozės (METAR, TAF).

turimą stotys yra geltonos ir raudonos taškus žemėlapyje.

Perkelti pele per norėdami pamatyti stoties vardą.

Tada spustelėkite, norėdami matyti oro stebėjimo ir prognozės.

Norėdami pakeisti žemėlapį: spustelėkite ant žalios mygtukų su juodo kryžiaus žemyn,; žalią mygtuką su brūkšneliu, jei norite nutolinti; arba žalių rodyklių gretimoms žemėlapius.


METAR-TAF: